createdAt,value
2018-12-12T00:00:43.968Z,2.84
2018-12-12T00:03:15.829Z,2.79
2018-12-12T00:05:47.836Z,2.84
2018-12-12T00:08:17.922Z,2.82
2018-12-12T00:10:47.898Z,2.86
2018-12-12T00:13:17.892Z,2.84
2018-12-12T00:15:48.001Z,2.86
2018-12-12T00:18:19.144Z,2.86
2018-12-12T00:20:49.581Z,2.88
2018-12-12T00:32:44.647Z,2.92
2018-12-12T00:35:14.951Z,2.93
2018-12-12T00:37:45.055Z,2.88
2018-12-12T00:40:15.027Z,2.86
2018-12-12T00:42:44.992Z,2.96
2018-12-12T00:45:14.831Z,2.98
2018-12-12T00:47:44.725Z,2.97
2018-12-12T00:50:14.871Z,3.03
2018-12-12T00:52:44.817Z,3.09
2018-12-12T00:58:17.681Z,3.03
2018-12-12T01:00:47.729Z,3.02
2018-12-12T01:12:39.001Z,3.01
2018-12-12T01:15:09.174Z,3.00
2018-12-12T01:17:39.194Z,2.92
2018-12-12T01:20:09.384Z,3.01
2018-12-12T01:22:39.446Z,3.08
2018-12-12T01:25:09.400Z,3.08
2018-12-12T01:27:39.558Z,3.07
2018-12-12T01:30:09.967Z,3.13
2018-12-12T01:32:41.695Z,3.07
2018-12-12T01:35:12.207Z,3.14
2018-12-12T01:37:42.882Z,3.21
2018-12-12T01:40:13.100Z,3.25
2018-12-12T01:42:44.459Z,3.26
2018-12-12T01:45:14.464Z,3.24
2018-12-12T01:47:46.913Z,3.19
2018-12-12T01:50:16.911Z,3.22
2018-12-12T01:52:47.352Z,3.25
2018-12-12T01:55:17.238Z,3.29
2018-12-12T01:57:47.639Z,3.28
2018-12-12T02:00:17.976Z,3.32
2018-12-12T02:02:53.251Z,3.35
2018-12-12T02:05:25.001Z,3.32
2018-12-12T02:07:57.013Z,3.32
2018-12-12T02:10:28.857Z,3.32
2018-12-12T02:13:11.800Z,3.36
2018-12-12T02:15:43.655Z,3.42
2018-12-12T02:18:15.394Z,3.48
2018-12-12T02:20:47.340Z,3.45
2018-12-12T02:23:19.057Z,3.44
2018-12-12T02:28:47.791Z,3.47
2018-12-12T02:31:19.532Z,3.46
2018-12-12T02:36:57.439Z,3.38
2018-12-12T02:42:23.777Z,3.44
2018-12-12T02:44:53.677Z,3.44
2018-12-12T02:47:24.238Z,3.41
2018-12-12T02:49:54.374Z,3.31
2018-12-12T02:52:24.632Z,3.29
2018-12-12T02:54:54.631Z,3.26
2018-12-12T02:57:24.720Z,3.26
2018-12-12T02:59:58.374Z,3.22
2018-12-12T03:02:28.506Z,3.16
2018-12-12T03:04:58.408Z,3.24
2018-12-12T03:07:28.526Z,3.19
2018-12-12T03:09:59.811Z,3.19
2018-12-12T03:12:29.960Z,3.25
2018-12-12T03:15:00.177Z,3.19
2018-12-12T03:17:30.302Z,3.17
2018-12-12T03:20:00.286Z,3.18
2018-12-12T03:22:30.484Z,3.13
2018-12-12T03:25:00.455Z,3.08
2018-12-12T03:27:30.813Z,3.12
2018-12-12T03:30:02.655Z,3.06
2018-12-12T03:32:33.137Z,3.08
2018-12-12T03:35:03.291Z,3.09
2018-12-12T03:37:33.501Z,3.10
2018-12-12T03:40:05.343Z,3.12
2018-12-12T03:42:35.772Z,3.12
2018-12-12T03:45:06.566Z,3.04
2018-12-12T03:47:37.184Z,2.96
2018-12-12T03:50:07.700Z,2.93
2018-12-12T03:52:37.856Z,3.06
2018-12-12T03:55:08.195Z,3.04
2018-12-12T03:57:38.380Z,3.07
2018-12-12T04:00:09.253Z,3.03
2018-12-12T04:02:46.989Z,2.97
2018-12-12T04:05:16.983Z,2.92
2018-12-12T04:07:48.543Z,2.96
2018-12-12T04:10:18.615Z,2.94
2018-12-12T04:12:50.407Z,2.99
2018-12-12T04:15:19.651Z,2.97
2018-12-12T04:17:49.675Z,3.01
2018-12-12T04:20:21.400Z,3.00
2018-12-12T04:25:59.374Z,3.02
2018-12-12T04:28:29.338Z,3.13
2018-12-12T04:30:59.331Z,3.18
2018-12-12T04:36:35.090Z,3.15
2018-12-12T04:39:07.315Z,3.16
2018-12-12T04:41:37.442Z,3.21
2018-12-12T04:44:07.462Z,3.33
2018-12-12T04:46:49.635Z,3.30
2018-12-12T04:49:19.690Z,3.34
2018-12-12T04:51:49.596Z,3.25
2018-12-12T04:54:25.068Z,3.21
2018-12-12T04:56:55.061Z,3.21
2018-12-12T04:59:25.321Z,3.19
2018-12-12T05:01:55.413Z,3.18
2018-12-12T05:04:25.500Z,3.25
2018-12-12T05:06:55.497Z,3.28
2018-12-12T05:09:25.591Z,3.23
2018-12-12T05:11:55.579Z,3.31
2018-12-12T05:14:25.593Z,3.42
2018-12-12T05:16:55.520Z,3.40
2018-12-12T05:19:26.445Z,3.41
2018-12-12T05:22:09.288Z,3.34
2018-12-12T05:24:39.314Z,3.22
2018-12-12T05:27:10.762Z,3.22
2018-12-12T05:29:42.517Z,3.28
2018-12-12T05:32:12.521Z,3.31
2018-12-12T05:34:42.606Z,3.41
2018-12-12T05:37:12.766Z,3.44
2018-12-12T05:42:56.232Z,3.34
2018-12-12T05:45:31.770Z,3.31
2018-12-12T05:48:04.312Z,3.32
2018-12-12T05:50:36.286Z,3.36
2018-12-12T05:53:09.845Z,3.40
2018-12-12T05:55:46.455Z,3.35
2018-12-12T05:58:17.712Z,3.35
2018-12-12T06:00:54.402Z,3.33
2018-12-12T06:03:30.025Z,3.31
2018-12-12T06:09:11.611Z,3.35
2018-12-12T06:11:41.808Z,3.35
2018-12-12T06:14:12.027Z,3.37
2018-12-12T06:16:42.030Z,3.38
2018-12-12T06:22:20.750Z,3.39
2018-12-12T06:24:52.582Z,3.38
2018-12-12T06:27:24.397Z,3.36
2018-12-12T06:29:57.626Z,3.33
2018-12-12T06:32:27.628Z,3.30
2018-12-12T06:35:01.381Z,3.28
2018-12-12T06:37:44.228Z,3.22
2018-12-12T06:40:14.078Z,3.22
2018-12-12T06:42:46.069Z,3.18
2018-12-12T06:45:19.800Z,3.26
2018-12-12T06:47:49.878Z,3.31
2018-12-12T06:50:25.585Z,3.31
2018-12-12T06:53:02.200Z,3.29
2018-12-12T06:55:32.058Z,3.23
2018-12-12T06:58:01.975Z,3.25
2018-12-12T07:00:32.079Z,3.28
2018-12-12T07:03:02.063Z,3.35
2018-12-12T07:05:50.539Z,3.33
2018-12-12T07:08:20.780Z,3.34
2018-12-12T07:10:52.711Z,3.36
2018-12-12T07:13:22.709Z,3.34
2018-12-12T07:15:52.799Z,3.36
2018-12-12T07:18:48.702Z,3.34
2018-12-12T07:21:18.784Z,3.39
2018-12-12T07:23:48.813Z,3.45
2018-12-12T07:26:18.801Z,3.42
2018-12-12T07:28:48.803Z,3.37
2018-12-12T07:31:18.891Z,3.41
2018-12-12T07:33:48.875Z,3.37
2018-12-12T07:36:18.978Z,3.36
2018-12-12T07:38:53.848Z,3.35
2018-12-12T07:41:30.848Z,3.39
2018-12-12T07:44:02.940Z,3.40
2018-12-12T07:46:40.771Z,3.43
2018-12-12T07:49:15.122Z,3.33
2018-12-12T07:52:05.965Z,3.39
2018-12-12T07:54:43.653Z,3.41
2018-12-12T07:57:34.342Z,3.44
2018-12-12T08:00:10.084Z,3.51
2018-12-12T08:05:41.186Z,3.44
2018-12-12T08:08:14.504Z,3.48
2018-12-12T08:13:44.753Z,3.45
2018-12-12T08:16:22.187Z,3.48
2018-12-12T08:18:52.246Z,3.46
2018-12-12T08:21:28.505Z,3.47
2018-12-12T08:24:02.091Z,3.45
2018-12-12T08:26:32.341Z,3.48
2018-12-12T08:29:08.781Z,3.51
2018-12-12T08:31:41.490Z,3.47
2018-12-12T08:34:11.529Z,3.48
2018-12-12T08:36:41.574Z,3.54
2018-12-12T08:39:11.592Z,3.54
2018-12-12T08:41:41.589Z,3.63
2018-12-12T08:44:13.859Z,3.68
2018-12-12T08:47:02.681Z,3.77
2018-12-12T08:52:45.773Z,3.81
2018-12-12T08:55:20.735Z,3.86
2018-12-12T08:58:09.878Z,3.88
2018-12-12T09:03:48.156Z,3.94
2018-12-12T09:09:22.515Z,4.01
2018-12-12T09:11:52.592Z,4.07
2018-12-12T09:14:41.175Z,4.07
2018-12-12T09:17:11.364Z,4.08
2018-12-12T09:22:52.624Z,4.10
2018-12-12T09:31:56.126Z,4.13
2018-12-12T09:34:49.824Z,4.17
2018-12-12T09:37:21.745Z,4.19
2018-12-12T09:39:54.564Z,4.24
2018-12-12T09:42:24.562Z,4.29
2018-12-12T09:45:00.795Z,4.33
2018-12-12T09:47:32.677Z,4.32
2018-12-12T09:56:20.169Z,4.49
2018-12-12T09:58:50.159Z,4.47
2018-12-12T10:01:20.175Z,4.63
2018-12-12T10:03:50.290Z,4.68
2018-12-12T10:06:20.334Z,4.63
2018-12-12T10:15:12.008Z,4.67
2018-12-12T10:17:42.034Z,4.62
2018-12-12T10:23:11.643Z,4.56
2018-12-12T10:28:51.825Z,4.63
2018-12-12T10:31:34.021Z,4.68
2018-12-12T10:34:04.294Z,4.70
2018-12-12T10:36:34.231Z,4.68
2018-12-12T10:39:07.032Z,4.69
2018-12-12T10:41:38.169Z,4.68
2018-12-12T10:44:09.262Z,4.70
2018-12-12T10:46:39.354Z,4.73
2018-12-12T10:49:11.492Z,4.76
2018-12-12T10:51:41.586Z,4.77
2018-12-12T10:54:11.849Z,4.80
2018-12-12T10:56:41.969Z,4.82
2018-12-12T10:59:22.301Z,4.81
2018-12-12T11:01:56.646Z,4.85
2018-12-12T11:04:27.775Z,4.88
2018-12-12T11:06:58.110Z,4.82
2018-12-12T11:09:32.751Z,4.80
2018-12-12T11:12:14.754Z,4.82
2018-12-12T11:15:02.955Z,4.83
2018-12-12T11:17:33.006Z,4.86
2018-12-12T11:20:03.312Z,4.87
2018-12-12T11:22:33.362Z,4.78
2018-12-12T11:25:08.132Z,4.69
2018-12-12T11:27:38.713Z,4.68
2018-12-12T11:30:09.029Z,4.69
2018-12-12T11:32:40.031Z,4.72
2018-12-12T11:35:10.085Z,4.69
2018-12-12T11:37:40.091Z,4.77
2018-12-12T11:40:10.251Z,4.85
2018-12-12T11:42:40.311Z,4.86
2018-12-12T11:45:11.628Z,4.87
2018-12-12T11:47:42.258Z,4.75
2018-12-12T11:50:12.333Z,4.83
2018-12-12T11:52:43.728Z,4.83
2018-12-12T11:55:15.186Z,4.87
2018-12-12T11:57:45.523Z,4.84
2018-12-12T12:00:15.647Z,4.83
2018-12-12T12:02:45.942Z,4.76
2018-12-12T12:05:16.127Z,4.62
2018-12-12T12:07:46.398Z,4.57
2018-12-12T12:10:16.556Z,4.57
2018-12-12T12:12:46.698Z,4.39
2018-12-12T12:15:16.765Z,4.28
2018-12-12T12:17:46.838Z,4.23
2018-12-12T12:20:16.966Z,4.25
2018-12-12T12:22:47.120Z,4.30
2018-12-12T12:25:17.130Z,4.30
2018-12-12T12:27:48.149Z,4.35
2018-12-12T12:30:18.230Z,4.32
2018-12-12T12:32:56.066Z,4.33
2018-12-12T12:35:26.119Z,4.26
2018-12-12T12:37:58.255Z,4.28
2018-12-12T12:40:28.453Z,4.35
2018-12-12T12:43:03.162Z,4.38
2018-12-12T12:45:33.221Z,4.38
2018-12-12T12:48:03.170Z,4.31
2018-12-12T12:50:33.194Z,4.26
2018-12-12T12:53:03.302Z,4.34
2018-12-12T12:55:52.440Z,4.43
2018-12-12T12:58:23.830Z,4.60
2018-12-12T13:00:53.994Z,4.73
2018-12-12T13:03:23.970Z,4.86
2018-12-12T13:05:54.130Z,4.96
2018-12-12T13:08:24.281Z,4.95
2018-12-12T13:10:55.696Z,4.92
2018-12-12T13:13:25.931Z,4.95
2018-12-12T13:15:58.463Z,4.89
2018-12-12T13:18:30.706Z,4.88
2018-12-12T13:21:01.615Z,4.88
2018-12-12T13:23:32.685Z,4.83
2018-12-12T13:26:07.625Z,4.69
2018-12-12T13:28:42.975Z,4.63
2018-12-12T13:31:22.046Z,4.63
2018-12-12T13:33:52.046Z,4.58
2018-12-12T13:36:22.006Z,4.57
2018-12-12T13:38:52.252Z,4.46
2018-12-12T13:41:27.668Z,4.50
2018-12-12T13:44:03.168Z,4.43
2018-12-12T13:46:34.880Z,4.44
2018-12-12T13:49:04.918Z,4.49
2018-12-12T13:51:34.895Z,4.50
2018-12-12T13:54:04.918Z,4.50
2018-12-12T13:56:34.945Z,4.49
2018-12-12T13:59:05.222Z,4.45
2018-12-12T14:01:35.279Z,4.38
2018-12-12T14:04:11.440Z,4.39
2018-12-12T14:06:41.426Z,4.42
2018-12-12T14:09:11.504Z,4.43
2018-12-12T14:11:43.617Z,4.32
2018-12-12T14:14:13.677Z,4.30
2018-12-12T14:16:43.626Z,4.27
2018-12-12T14:19:13.869Z,4.28
2018-12-12T14:21:43.829Z,4.25
2018-12-12T14:24:13.853Z,4.28
2018-12-12T14:26:44.043Z,4.35
2018-12-12T14:29:14.163Z,4.46
2018-12-12T14:31:44.223Z,4.43
2018-12-12T14:34:17.693Z,4.51
2018-12-12T14:36:47.716Z,4.44
2018-12-12T14:39:17.983Z,4.54
2018-12-12T14:41:51.926Z,4.52
2018-12-12T14:44:27.271Z,4.53
2018-12-12T14:46:59.030Z,4.51
2018-12-12T14:49:28.992Z,4.51
2018-12-12T14:51:59.056Z,4.45
2018-12-12T14:54:29.076Z,4.39
2018-12-12T14:56:59.186Z,4.35
2018-12-12T14:59:29.320Z,4.30
2018-12-12T15:02:02.214Z,4.25
2018-12-12T15:04:35.870Z,4.18
2018-12-12T15:07:10.411Z,4.10
2018-12-12T15:09:40.513Z,4.01
2018-12-12T15:12:10.805Z,4.02
2018-12-12T15:14:43.745Z,4.12
2018-12-12T15:20:04.783Z,4.05
2018-12-12T15:22:34.953Z,3.99
2018-12-12T15:25:05.655Z,3.92
2018-12-12T15:27:36.814Z,3.87
2018-12-12T15:32:53.546Z,3.80
2018-12-12T15:35:23.379Z,3.76
2018-12-12T15:37:53.469Z,3.71
2018-12-12T15:40:24.470Z,3.64
2018-12-12T15:42:59.356Z,3.63
2018-12-12T15:48:16.028Z,3.48
2018-12-12T15:50:46.289Z,3.46
2018-12-12T15:53:16.320Z,3.36
2018-12-12T15:55:47.443Z,3.31
2018-12-12T16:01:03.001Z,3.24
2018-12-12T16:03:35.547Z,3.18
2018-12-12T16:06:06.634Z,3.10
2018-12-12T16:08:36.641Z,3.05
2018-12-12T16:11:10.747Z,3.00
2018-12-12T16:13:40.795Z,2.97
2018-12-12T16:16:17.303Z,2.85
2018-12-12T16:18:47.448Z,2.85
2018-12-12T16:21:25.794Z,2.81
2018-12-12T16:24:19.776Z,2.73
2018-12-12T16:26:54.986Z,2.71
2018-12-12T16:29:29.985Z,2.64
2018-12-12T16:32:15.014Z,2.51
2018-12-12T16:34:55.602Z,2.42
2018-12-12T16:37:30.634Z,2.37
2018-12-12T16:40:08.888Z,2.33
2018-12-12T16:42:51.583Z,2.28
2018-12-12T16:45:29.564Z,2.18
2018-12-12T16:48:05.474Z,2.07
2018-12-12T16:50:49.543Z,2.03
2018-12-12T16:53:31.511Z,2.03
2018-12-12T16:56:07.974Z,1.97
2018-12-12T16:58:51.850Z,1.96
2018-12-12T17:01:27.342Z,1.90
2018-12-12T17:04:00.923Z,1.88
2018-12-12T17:06:49.068Z,1.82
2018-12-12T17:09:25.170Z,1.82
2018-12-12T17:15:04.644Z,1.66
2018-12-12T17:20:50.980Z,1.58
2018-12-12T17:23:33.548Z,1.64
2018-12-12T17:26:11.298Z,1.67
2018-12-12T17:28:47.646Z,1.60
2018-12-12T17:31:21.279Z,1.72
2018-12-12T17:33:58.818Z,1.78
2018-12-12T17:36:35.822Z,1.77
2018-12-12T17:39:11.682Z,1.93
2018-12-12T17:41:45.261Z,1.97
2018-12-12T17:44:18.403Z,1.93
2018-12-12T17:46:52.338Z,1.95
2018-12-12T17:49:29.098Z,1.93
2018-12-12T17:54:57.399Z,2.08
2018-12-12T17:57:32.825Z,2.10
2018-12-12T18:00:18.905Z,2.26
2018-12-12T18:02:54.253Z,2.33
2018-12-12T18:05:38.814Z,2.36
2018-12-12T18:08:19.926Z,2.43
2018-12-12T18:11:01.649Z,2.54
2018-12-12T18:13:42.681Z,2.65
2018-12-12T18:16:19.542Z,2.65
2018-12-12T18:22:00.779Z,2.61
2018-12-12T18:24:40.191Z,2.70
2018-12-12T18:27:18.262Z,2.75
2018-12-12T18:29:54.750Z,2.71
2018-12-12T18:32:33.185Z,2.74
2018-12-12T18:35:34.728Z,2.74
2018-12-12T18:38:13.035Z,2.78
2018-12-12T18:40:48.699Z,2.74
2018-12-12T18:43:26.309Z,2.65
2018-12-12T18:49:03.423Z,2.67
2018-12-12T18:51:35.322Z,2.69
2018-12-12T18:57:21.992Z,2.83
2018-12-12T18:59:56.754Z,2.88
2018-12-12T19:02:26.738Z,2.89
2018-12-12T19:05:06.431Z,2.83
2018-12-12T19:07:36.485Z,2.85
2018-12-12T19:10:06.941Z,2.88
2018-12-12T19:12:37.301Z,2.89
2018-12-12T19:15:08.327Z,2.87
2018-12-12T19:17:44.062Z,2.88
2018-12-12T19:20:14.041Z,2.92
2018-12-12T19:22:44.243Z,2.91
2018-12-12T19:25:14.244Z,2.91
2018-12-12T19:27:45.439Z,2.92
2018-12-12T19:33:21.397Z,2.93
2018-12-12T19:35:51.591Z,2.91
2018-12-12T19:41:28.635Z,2.95
2018-12-12T19:44:22.360Z,2.92
2018-12-12T19:47:01.311Z,2.89
2018-12-12T19:49:38.911Z,2.90
2018-12-12T19:52:14.313Z,2.81
2018-12-12T19:54:50.194Z,2.80
2018-12-12T20:00:26.404Z,2.75
2018-12-12T20:02:56.415Z,2.85
2018-12-12T20:05:27.664Z,2.80
2018-12-12T20:14:07.042Z,2.89
2018-12-12T20:16:50.697Z,2.92
2018-12-12T20:19:31.029Z,2.96
2018-12-12T20:22:05.489Z,2.94
2018-12-12T20:24:35.634Z,2.98
2018-12-12T20:27:12.392Z,2.97
2018-12-12T20:29:43.454Z,2.90
2018-12-12T20:32:19.327Z,2.93
2018-12-12T20:34:49.187Z,3.00
2018-12-12T20:37:28.079Z,3.01
2018-12-12T20:40:16.375Z,3.01
2018-12-12T20:49:08.567Z,2.89
2018-12-12T20:51:52.693Z,2.94
2018-12-12T20:54:35.154Z,2.97
2018-12-12T21:00:37.042Z,2.97
2018-12-12T21:11:34.651Z,2.90
2018-12-12T21:16:56.111Z,2.94
2018-12-12T21:25:35.947Z,2.98
2018-12-12T21:28:05.935Z,3.05
2018-12-12T21:30:36.100Z,3.01
2018-12-12T21:33:06.275Z,3.07
2018-12-12T21:35:36.350Z,3.06
2018-12-12T21:38:06.536Z,3.10
2018-12-12T21:40:36.531Z,3.20
2018-12-12T21:43:08.879Z,3.28
2018-12-12T21:45:39.808Z,3.27
2018-12-12T21:48:16.407Z,3.29
2018-12-12T21:50:46.842Z,3.31
2018-12-12T21:53:18.828Z,3.32
2018-12-12T21:55:49.436Z,3.27
2018-12-12T21:58:19.965Z,3.28
2018-12-12T22:00:51.765Z,3.28
2018-12-12T22:03:22.823Z,3.29
2018-12-12T22:05:53.997Z,3.26
2018-12-12T22:08:27.534Z,3.25
2018-12-12T22:11:01.396Z,3.17
2018-12-12T22:13:35.237Z,3.18
2018-12-12T22:16:05.437Z,3.17
2018-12-12T22:18:46.390Z,3.12
2018-12-12T22:21:22.507Z,3.12
2018-12-12T22:23:54.580Z,3.18
2018-12-12T22:26:47.622Z,3.19
2018-12-12T22:29:17.664Z,3.17
2018-12-12T22:31:47.729Z,3.09
2018-12-12T22:34:18.033Z,3.10
2018-12-12T22:36:48.147Z,3.07
2018-12-12T22:39:19.814Z,3.01
2018-12-12T22:41:51.592Z,3.02
2018-12-12T22:44:21.920Z,3.05
2018-12-12T22:46:51.814Z,3.11
2018-12-12T22:49:21.966Z,3.19
2018-12-12T22:51:52.359Z,3.18
2018-12-12T22:54:22.398Z,3.07
2018-12-12T22:57:04.806Z,3.01
2018-12-12T22:59:39.347Z,3.08
2018-12-12T23:05:19.153Z,3.09
2018-12-12T23:08:03.239Z,3.12
2018-12-12T23:10:40.794Z,3.07
2018-12-12T23:13:11.118Z,3.03
2018-12-12T23:15:50.539Z,3.09
2018-12-12T23:21:50.055Z,3.12
2018-12-12T23:27:29.610Z,3.11
2018-12-12T23:30:11.556Z,3.11
2018-12-12T23:32:53.462Z,3.14
2018-12-12T23:44:33.882Z,3.18
2018-12-12T23:47:26.320Z,3.16
2018-12-12T23:56:14.322Z,3.12
2018-12-12T23:58:47.909Z,3.24
